Terminal Aerodrome Forecast
Issued by NWS Louisville, KY

Home | Current Version | Previous Version | Text Only | Print | Product List | Glossary On
Versions: 1 2 3 4 5 6 7 8 9 10 11 12 13 14 15 16 17 18 19 20 21 22 23 24 25
415
FTUS43 KLMK 291120
TAFBWG
TAF
KBWG 291120Z 2912/3012 VRB03KT P6SM SCT020 BKN250
     FM291600 23008KT P6SM VCTS SCT040CB BKN250
     FM292100 26008KT P6SM SCT040 BKN250
     FM300000 VRB03KT P6SM FEW040 SCT250=

USA.gov is the U.S. government's official web portal to all federal, state and local government web resources and services.